sensor_id;sensor_type;location;lat;lon;timestamp;temperature;humidity
13174;DHT22;6652;48.802;9.190;2023-12-20T00:01:23;6.90;99.90
13174;DHT22;6652;48.802;9.190;2023-12-20T00:03:50;7.00;99.90
13174;DHT22;6652;48.802;9.190;2023-12-20T00:06:16;7.00;99.90
13174;DHT22;6652;48.802;9.190;2023-12-20T00:08:43;7.00;99.90
13174;DHT22;6652;48.802;9.190;2023-12-20T00:11:12;7.00;99.90
13174;DHT22;6652;48.802;9.190;2023-12-20T00:13:39;7.10;99.90
13174;DHT22;6652;48.802;9.190;2023-12-20T00:16:06;7.00;99.90
13174;DHT22;6652;48.802;9.190;2023-12-20T00:18:33;7.00;99.90
13174;DHT22;6652;48.802;9.190;2023-12-20T00:20:59;7.10;99.90
13174;DHT22;6652;48.802;9.190;2023-12-20T00:23:26;7.10;99.90
13174;DHT22;6652;48.802;9.190;2023-12-20T00:25:53;7.10;99.90
13174;DHT22;6652;48.802;9.190;2023-12-20T00:28:21;7.10;99.90
13174;DHT22;6652;48.802;9.190;2023-12-20T00:30:48;7.10;99.90
13174;DHT22;6652;48.802;9.190;2023-12-20T00:33:15;7.10;99.90
13174;DHT22;6652;48.802;9.190;2023-12-20T00:35:41;7.10;99.90
13174;DHT22;6652;48.802;9.190;2023-12-20T00:38:08;7.10;99.90
13174;DHT22;6652;48.802;9.190;2023-12-20T00:40:36;7.10;99.90
13174;DHT22;6652;48.802;9.190;2023-12-20T00:43:03;7.10;99.90
13174;DHT22;6652;48.802;9.190;2023-12-20T00:45:31;7.10;99.90
13174;DHT22;6652;48.802;9.190;2023-12-20T00:47:58;7.00;99.90
13174;DHT22;6652;48.802;9.190;2023-12-20T00:50:25;7.00;99.90
13174;DHT22;6652;48.802;9.190;2023-12-20T00:52:52;7.00;99.90
13174;DHT22;6652;48.802;9.190;2023-12-20T00:55:20;7.00;99.90
13174;DHT22;6652;48.802;9.190;2023-12-20T00:57:46;7.00;99.90
13174;DHT22;6652;48.802;9.190;2023-12-20T01:00:14;6.90;99.90
13174;DHT22;6652;48.802;9.190;2023-12-20T01:02:42;6.90;99.90
13174;DHT22;6652;48.802;9.190;2023-12-20T01:05:09;6.90;99.90
13174;DHT22;6652;48.802;9.190;2023-12-20T01:07:36;6.90;99.90
13174;DHT22;6652;48.802;9.190;2023-12-20T01:10:03;6.90;99.90
13174;DHT22;6652;48.802;9.190;2023-12-20T01:12:30;6.90;99.90
13174;DHT22;6652;48.802;9.190;2023-12-20T01:14:56;6.80;99.90
13174;DHT22;6652;48.802;9.190;2023-12-20T01:17:24;6.80;99.90
13174;DHT22;6652;48.802;9.190;2023-12-20T01:19:52;6.80;99.90
13174;DHT22;6652;48.802;9.190;2023-12-20T01:22:19;6.70;99.90
13174;DHT22;6652;48.802;9.190;2023-12-20T01:24:45;6.70;99.90
13174;DHT22;6652;48.802;9.190;2023-12-20T01:27:12;6.70;99.90
13174;DHT22;6652;48.802;9.190;2023-12-20T01:29:39;6.70;99.90
13174;DHT22;6652;48.802;9.190;2023-12-20T01:32:06;6.70;99.90
13174;DHT22;6652;48.802;9.190;2023-12-20T01:34:33;6.70;99.90
13174;DHT22;6652;48.802;9.190;2023-12-20T01:37:01;6.60;99.90
13174;DHT22;6652;48.802;9.190;2023-12-20T01:39:29;6.60;99.90
13174;DHT22;6652;48.802;9.190;2023-12-20T01:41:57;6.60;99.90
13174;DHT22;6652;48.802;9.190;2023-12-20T01:44:24;6.60;99.90
13174;DHT22;6652;48.802;9.190;2023-12-20T01:46:51;6.60;99.90
13174;DHT22;6652;48.802;9.190;2023-12-20T01:49:17;6.50;99.90
13174;DHT22;6652;48.802;9.190;2023-12-20T01:51:45;6.50;99.90
13174;DHT22;6652;48.802;9.190;2023-12-20T01:54:13;6.50;99.90
13174;DHT22;6652;48.802;9.190;2023-12-20T01:56:40;6.50;99.90
13174;DHT22;6652;48.802;9.190;2023-12-20T01:59:07;6.50;99.90
13174;DHT22;6652;48.802;9.190;2023-12-20T02:01:35;6.50;99.90
13174;DHT22;6652;48.802;9.190;2023-12-20T02:04:02;6.50;99.90
13174;DHT22;6652;48.802;9.190;2023-12-20T02:06:30;6.50;99.90
13174;DHT22;6652;48.802;9.190;2023-12-20T02:08:57;6.60;99.90
13174;DHT22;6652;48.802;9.190;2023-12-20T02:11:25;6.60;99.90
13174;DHT22;6652;48.802;9.190;2023-12-20T02:13:53;6.60;99.90
13174;DHT22;6652;48.802;9.190;2023-12-20T02:16:21;6.60;99.90
13174;DHT22;6652;48.802;9.190;2023-12-20T02:18:48;6.60;99.90
13174;DHT22;6652;48.802;9.190;2023-12-20T02:21:15;6.80;99.90
13174;DHT22;6652;48.802;9.190;2023-12-20T02:23:43;6.60;99.90
13174;DHT22;6652;48.802;9.190;2023-12-20T02:26:10;6.60;99.90
13174;DHT22;6652;48.802;9.190;2023-12-20T02:28:39;6.50;99.90
13174;DHT22;6652;48.802;9.190;2023-12-20T02:31:06;6.50;99.90
13174;DHT22;6652;48.802;9.190;2023-12-20T02:33:33;6.50;99.90
13174;DHT22;6652;48.802;9.190;2023-12-20T02:35:59;6.50;99.90
13174;DHT22;6652;48.802;9.190;2023-12-20T02:38:26;6.50;99.90
13174;DHT22;6652;48.802;9.190;2023-12-20T02:40:54;6.40;99.90
13174;DHT22;6652;48.802;9.190;2023-12-20T02:43:21;6.40;99.90
13174;DHT22;6652;48.802;9.190;2023-12-20T02:45:48;6.40;99.90
13174;DHT22;6652;48.802;9.190;2023-12-20T02:48:15;6.40;99.90
13174;DHT22;6652;48.802;9.190;2023-12-20T02:50:41;6.50;99.90
13174;DHT22;6652;48.802;9.190;2023-12-20T02:53:08;6.40;99.90
13174;DHT22;6652;48.802;9.190;2023-12-20T02:55:35;6.40;99.90
13174;DHT22;6652;48.802;9.190;2023-12-20T02:58:03;6.50;99.90
13174;DHT22;6652;48.802;9.190;2023-12-20T03:00:30;6.50;99.90
13174;DHT22;6652;48.802;9.190;2023-12-20T03:02:57;6.50;99.90
13174;DHT22;6652;48.802;9.190;2023-12-20T03:05:25;6.50;99.90
13174;DHT22;6652;48.802;9.190;2023-12-20T03:07:51;6.40;99.90
13174;DHT22;6652;48.802;9.190;2023-12-20T03:10:19;6.50;99.90
13174;DHT22;6652;48.802;9.190;2023-12-20T03:12:45;6.40;99.90
13174;DHT22;6652;48.802;9.190;2023-12-20T03:15:14;6.40;99.90
13174;DHT22;6652;48.802;9.190;2023-12-20T03:17:40;6.40;99.90
13174;DHT22;6652;48.802;9.190;2023-12-20T03:20:08;6.40;99.90
13174;DHT22;6652;48.802;9.190;2023-12-20T03:22:35;6.50;99.90
13174;DHT22;6652;48.802;9.190;2023-12-20T03:25:02;6.40;99.90
13174;DHT22;6652;48.802;9.190;2023-12-20T03:27:29;6.40;99.90
13174;DHT22;6652;48.802;9.190;2023-12-20T03:29:55;6.50;99.90
13174;DHT22;6652;48.802;9.190;2023-12-20T03:32:23;6.40;99.90
13174;DHT22;6652;48.802;9.190;2023-12-20T03:34:50;6.40;99.90
13174;DHT22;6652;48.802;9.190;2023-12-20T03:37:17;6.50;99.90
13174;DHT22;6652;48.802;9.190;2023-12-20T03:39:44;6.50;99.90
13174;DHT22;6652;48.802;9.190;2023-12-20T03:42:10;6.50;99.90
13174;DHT22;6652;48.802;9.190;2023-12-20T03:44:38;6.50;99.90
13174;DHT22;6652;48.802;9.190;2023-12-20T03:47:05;6.60;99.90
13174;DHT22;6652;48.802;9.190;2023-12-20T03:49:33;6.50;99.90
13174;DHT22;6652;48.802;9.190;2023-12-20T03:52:02;6.50;99.90
13174;DHT22;6652;48.802;9.190;2023-12-20T03:54:29;6.50;99.90
13174;DHT22;6652;48.802;9.190;2023-12-20T03:56:56;6.50;99.90
13174;DHT22;6652;48.802;9.190;2023-12-20T03:59:23;6.40;99.90
13174;DHT22;6652;48.802;9.190;2023-12-20T04:01:49;6.40;99.90
13174;DHT22;6652;48.802;9.190;2023-12-20T04:04:16;6.40;99.90
13174;DHT22;6652;48.802;9.190;2023-12-20T04:06:44;6.40;99.90
13174;DHT22;6652;48.802;9.190;2023-12-20T04:09:11;6.40;99.90
13174;DHT22;6652;48.802;9.190;2023-12-20T04:11:38;6.40;99.90
13174;DHT22;6652;48.802;9.190;2023-12-20T04:14:05;6.40;99.90
13174;DHT22;6652;48.802;9.190;2023-12-20T04:16:32;6.40;99.90
13174;DHT22;6652;48.802;9.190;2023-12-20T04:18:59;6.40;99.90
13174;DHT22;6652;48.802;9.190;2023-12-20T04:21:26;6.40;99.90
13174;DHT22;6652;48.802;9.190;2023-12-20T04:23:54;6.40;99.90
13174;DHT22;6652;48.802;9.190;2023-12-20T04:26:21;6.30;99.90
13174;DHT22;6652;48.802;9.190;2023-12-20T04:28:48;6.40;99.90
13174;DHT22;6652;48.802;9.190;2023-12-20T04:31:14;6.30;99.90
13174;DHT22;6652;48.802;9.190;2023-12-20T04:33:41;6.90;99.90
13174;DHT22;6652;48.802;9.190;2023-12-20T04:36:08;6.40;99.90
13174;DHT22;6652;48.802;9.190;2023-12-20T04:38:35;6.70;99.90
13174;DHT22;6652;48.802;9.190;2023-12-20T04:41:03;6.30;99.90
13174;DHT22;6652;48.802;9.190;2023-12-20T04:43:30;6.30;99.90
13174;DHT22;6652;48.802;9.190;2023-12-20T04:45:57;6.30;99.90
13174;DHT22;6652;48.802;9.190;2023-12-20T04:48:24;6.30;99.90
13174;DHT22;6652;48.802;9.190;2023-12-20T04:50:50;6.30;99.90
13174;DHT22;6652;48.802;9.190;2023-12-20T04:53:17;6.30;99.90
13174;DHT22;6652;48.802;9.190;2023-12-20T04:55:44;6.30;99.90
13174;DHT22;6652;48.802;9.190;2023-12-20T04:58:12;6.20;99.90
13174;DHT22;6652;48.802;9.190;2023-12-20T05:00:39;6.20;99.90
13174;DHT22;6652;48.802;9.190;2023-12-20T05:03:06;6.30;99.90
13174;DHT22;6652;48.802;9.190;2023-12-20T05:05:33;6.20;99.90
13174;DHT22;6652;48.802;9.190;2023-12-20T05:08:00;6.20;99.90
13174;DHT22;6652;48.802;9.190;2023-12-20T05:10:27;6.20;99.90
13174;DHT22;6652;48.802;9.190;2023-12-20T05:12:54;6.20;99.90
13174;DHT22;6652;48.802;9.190;2023-12-20T05:15:22;6.20;99.90
13174;DHT22;6652;48.802;9.190;2023-12-20T05:17:49;6.30;99.90
13174;DHT22;6652;48.802;9.190;2023-12-20T05:20:15;6.30;99.90
13174;DHT22;6652;48.802;9.190;2023-12-20T05:22:42;6.20;99.90
13174;DHT22;6652;48.802;9.190;2023-12-20T05:25:10;6.30;99.90
13174;DHT22;6652;48.802;9.190;2023-12-20T05:27:37;6.20;99.90
13174;DHT22;6652;48.802;9.190;2023-12-20T05:30:05;6.20;99.90
13174;DHT22;6652;48.802;9.190;2023-12-20T05:32:33;6.30;99.90
13174;DHT22;6652;48.802;9.190;2023-12-20T05:35:00;6.30;99.90
13174;DHT22;6652;48.802;9.190;2023-12-20T05:37:27;7.10;99.90
13174;DHT22;6652;48.802;9.190;2023-12-20T05:39:54;6.30;99.90
13174;DHT22;6652;48.802;9.190;2023-12-20T05:42:21;6.50;99.90
13174;DHT22;6652;48.802;9.190;2023-12-20T05:44:48;6.30;99.90
13174;DHT22;6652;48.802;9.190;2023-12-20T05:47:15;6.30;99.90
13174;DHT22;6652;48.802;9.190;2023-12-20T05:49:44;6.30;99.90
13174;DHT22;6652;48.802;9.190;2023-12-20T05:52:11;6.30;99.90
13174;DHT22;6652;48.802;9.190;2023-12-20T05:54:38;6.30;99.90
13174;DHT22;6652;48.802;9.190;2023-12-20T05:57:05;6.30;99.90
13174;DHT22;6652;48.802;9.190;2023-12-20T05:59:31;6.30;99.90
13174;DHT22;6652;48.802;9.190;2023-12-20T06:01:58;6.30;99.90
13174;DHT22;6652;48.802;9.190;2023-12-20T06:04:25;6.30;99.90
13174;DHT22;6652;48.802;9.190;2023-12-20T06:06:53;6.30;99.90
13174;DHT22;6652;48.802;9.190;2023-12-20T06:09:20;6.30;99.90
13174;DHT22;6652;48.802;9.190;2023-12-20T06:11:46;6.30;99.90
13174;DHT22;6652;48.802;9.190;2023-12-20T06:14:13;6.30;99.90
13174;DHT22;6652;48.802;9.190;2023-12-20T06:16:40;6.30;99.90
13174;DHT22;6652;48.802;9.190;2023-12-20T06:19:07;6.30;99.90
13174;DHT22;6652;48.802;9.190;2023-12-20T06:21:34;6.30;99.90
13174;DHT22;6652;48.802;9.190;2023-12-20T06:24:02;6.30;99.90
13174;DHT22;6652;48.802;9.190;2023-12-20T06:26:29;6.30;99.90
13174;DHT22;6652;48.802;9.190;2023-12-20T06:28:55;6.30;99.90
13174;DHT22;6652;48.802;9.190;2023-12-20T06:31:22;6.30;99.90
13174;DHT22;6652;48.802;9.190;2023-12-20T06:33:49;6.30;99.90
13174;DHT22;6652;48.802;9.190;2023-12-20T06:36:23;6.30;99.90
13174;DHT22;6652;48.802;9.190;2023-12-20T06:38:49;6.30;99.90
13174;DHT22;6652;48.802;9.190;2023-12-20T06:41:18;6.30;99.90
13174;DHT22;6652;48.802;9.190;2023-12-20T06:43:45;6.40;99.90
13174;DHT22;6652;48.802;9.190;2023-12-20T06:46:12;6.40;99.90
13174;DHT22;6652;48.802;9.190;2023-12-20T06:48:39;6.40;99.90
13174;DHT22;6652;48.802;9.190;2023-12-20T06:51:06;6.40;99.90
13174;DHT22;6652;48.802;9.190;2023-12-20T06:53:33;6.40;99.90
13174;DHT22;6652;48.802;9.190;2023-12-20T06:56:00;6.40;99.90
13174;DHT22;6652;48.802;9.190;2023-12-20T06:58:28;6.40;99.90
13174;DHT22;6652;48.802;9.190;2023-12-20T07:00:54;6.60;99.90
13174;DHT22;6652;48.802;9.190;2023-12-20T07:03:21;6.40;99.90
13174;DHT22;6652;48.802;9.190;2023-12-20T07:05:48;6.50;99.90
13174;DHT22;6652;48.802;9.190;2023-12-20T07:08:15;6.50;99.90
13174;DHT22;6652;48.802;9.190;2023-12-20T07:10:42;7.20;99.90
13174;DHT22;6652;48.802;9.190;2023-12-20T07:13:08;6.50;99.90
13174;DHT22;6652;48.802;9.190;2023-12-20T07:15:37;6.50;99.90
13174;DHT22;6652;48.802;9.190;2023-12-20T07:18:04;6.50;99.90
13174;DHT22;6652;48.802;9.190;2023-12-20T07:20:32;6.50;99.90
13174;DHT22;6652;48.802;9.190;2023-12-20T07:22:59;6.50;99.90
13174;DHT22;6652;48.802;9.190;2023-12-20T07:25:26;6.50;99.90
13174;DHT22;6652;48.802;9.190;2023-12-20T07:27:52;6.50;99.90
13174;DHT22;6652;48.802;9.190;2023-12-20T07:30:19;6.50;99.90
13174;DHT22;6652;48.802;9.190;2023-12-20T07:32:47;6.50;99.90
13174;DHT22;6652;48.802;9.190;2023-12-20T07:35:15;6.50;99.90
13174;DHT22;6652;48.802;9.190;2023-12-20T07:37:42;6.50;99.90
13174;DHT22;6652;48.802;9.190;2023-12-20T07:40:10;6.50;99.90
13174;DHT22;6652;48.802;9.190;2023-12-20T07:42:37;6.50;99.90
13174;DHT22;6652;48.802;9.190;2023-12-20T07:45:04;6.50;99.90
13174;DHT22;6652;48.802;9.190;2023-12-20T07:47:31;6.40;99.90
13174;DHT22;6652;48.802;9.190;2023-12-20T07:49:59;6.40;99.90
13174;DHT22;6652;48.802;9.190;2023-12-20T07:52:26;6.40;99.90
13174;DHT22;6652;48.802;9.190;2023-12-20T07:54:53;6.50;99.90
13174;DHT22;6652;48.802;9.190;2023-12-20T07:57:19;6.40;99.90
13174;DHT22;6652;48.802;9.190;2023-12-20T07:59:46;6.50;99.90
13174;DHT22;6652;48.802;9.190;2023-12-20T08:02:13;6.50;99.90
13174;DHT22;6652;48.802;9.190;2023-12-20T08:04:40;6.50;99.90
13174;DHT22;6652;48.802;9.190;2023-12-20T08:07:08;6.40;99.90
13174;DHT22;6652;48.802;9.190;2023-12-20T08:09:35;6.40;99.90
13174;DHT22;6652;48.802;9.190;2023-12-20T08:12:02;6.20;99.90
13174;DHT22;6652;48.802;9.190;2023-12-20T08:14:29;6.20;99.90
13174;DHT22;6652;48.802;9.190;2023-12-20T08:16:56;6.20;99.90
13174;DHT22;6652;48.802;9.190;2023-12-20T08:19:23;6.00;99.90
13174;DHT22;6652;48.802;9.190;2023-12-20T08:21:50;6.00;99.90
13174;DHT22;6652;48.802;9.190;2023-12-20T08:24:18;5.90;99.90
13174;DHT22;6652;48.802;9.190;2023-12-20T08:26:45;6.00;99.90
13174;DHT22;6652;48.802;9.190;2023-12-20T08:29:13;6.10;99.90
13174;DHT22;6652;48.802;9.190;2023-12-20T08:31:40;7.10;99.90
13174;DHT22;6652;48.802;9.190;2023-12-20T08:34:07;6.10;99.90
13174;DHT22;6652;48.802;9.190;2023-12-20T08:36:33;6.10;99.90
13174;DHT22;6652;48.802;9.190;2023-12-20T08:39:00;6.20;99.90
13174;DHT22;6652;48.802;9.190;2023-12-20T08:41:30;6.10;99.90
13174;DHT22;6652;48.802;9.190;2023-12-20T08:43:57;6.10;99.90
13174;DHT22;6652;48.802;9.190;2023-12-20T08:46:24;6.10;99.90
13174;DHT22;6652;48.802;9.190;2023-12-20T08:48:51;7.30;99.90
13174;DHT22;6652;48.802;9.190;2023-12-20T08:51:17;8.80;99.90
13174;DHT22;6652;48.802;9.190;2023-12-20T08:53:45;8.70;99.90
13174;DHT22;6652;48.802;9.190;2023-12-20T08:56:13;9.50;99.90
13174;DHT22;6652;48.802;9.190;2023-12-20T08:58:41;11.50;99.90
13174;DHT22;6652;48.802;9.190;2023-12-20T09:01:08;13.30;99.90
13174;DHT22;6652;48.802;9.190;2023-12-20T09:03:35;14.50;99.90
13174;DHT22;6652;48.802;9.190;2023-12-20T09:06:02;15.40;99.90
13174;DHT22;6652;48.802;9.190;2023-12-20T09:08:29;16.30;99.90
13174;DHT22;6652;48.802;9.190;2023-12-20T09:10:56;16.80;99.90
13174;DHT22;6652;48.802;9.190;2023-12-20T09:13:23;17.20;99.90
13174;DHT22;6652;48.802;9.190;2023-12-20T09:15:54;17.60;99.90
13174;DHT22;6652;48.802;9.190;2023-12-20T09:18:21;18.00;99.90
13174;DHT22;6652;48.802;9.190;2023-12-20T09:20:48;18.10;99.90
13174;DHT22;6652;48.802;9.190;2023-12-20T09:23:15;18.20;99.90
13174;DHT22;6652;48.802;9.190;2023-12-20T09:25:42;18.30;99.90
13174;DHT22;6652;48.802;9.190;2023-12-20T09:28:09;18.30;99.90
13174;DHT22;6652;48.802;9.190;2023-12-20T09:30:36;18.50;99.90
13174;DHT22;6652;48.802;9.190;2023-12-20T09:33:06;18.80;99.50
13174;DHT22;6652;48.802;9.190;2023-12-20T09:35:33;19.20;98.50
13174;DHT22;6652;48.802;9.190;2023-12-20T09:38:00;19.40;97.80
13174;DHT22;6652;48.802;9.190;2023-12-20T09:40:28;19.90;96.90
13174;DHT22;6652;48.802;9.190;2023-12-20T09:42:57;19.70;94.90
13174;DHT22;6652;48.802;9.190;2023-12-20T09:45:24;19.50;93.70
13174;DHT22;6652;48.802;9.190;2023-12-20T09:47:53;19.60;93.70
13174;DHT22;6652;48.802;9.190;2023-12-20T09:50:22;19.90;92.50
13174;DHT22;6652;48.802;9.190;2023-12-20T09:52:50;19.80;91.70
13174;DHT22;6652;48.802;9.190;2023-12-20T09:55:18;19.70;91.00
13174;DHT22;6652;48.802;9.190;2023-12-20T09:57:45;19.50;90.60
13174;DHT22;6652;48.802;9.190;2023-12-20T10:00:13;19.50;90.40
13174;DHT22;6652;48.802;9.190;2023-12-20T10:02:45;19.60;90.10
13174;DHT22;6652;48.802;9.190;2023-12-20T10:05:17;19.70;88.50
13174;DHT22;6652;48.802;9.190;2023-12-20T10:07:46;19.80;86.90
13174;DHT22;6652;48.802;9.190;2023-12-20T10:10:14;19.60;86.10
13174;DHT22;6652;48.802;9.190;2023-12-20T10:12:40;19.00;85.00
13174;DHT22;6652;48.802;9.190;2023-12-20T10:15:27;18.60;86.30
13174;DHT22;6652;48.802;9.190;2023-12-20T10:17:54;18.50;86.20
13174;DHT22;6652;48.802;9.190;2023-12-20T10:20:21;16.90;86.40
13174;DHT22;6652;48.802;9.190;2023-12-20T10:22:49;15.70;90.20
13174;DHT22;6652;48.802;9.190;2023-12-20T10:25:19;14.00;91.10
13174;DHT22;6652;48.802;9.190;2023-12-20T10:27:45;12.70;93.20
13174;DHT22;6652;48.802;9.190;2023-12-20T10:30:13;11.70;95.20
13174;DHT22;6652;48.802;9.190;2023-12-20T10:32:40;10.90;96.30
13174;DHT22;6652;48.802;9.190;2023-12-20T10:35:08;10.10;98.00
13174;DHT22;6652;48.802;9.190;2023-12-20T10:37:35;9.70;99.90
13174;DHT22;6652;48.802;9.190;2023-12-20T10:40:05;9.30;99.90
13174;DHT22;6652;48.802;9.190;2023-12-20T10:42:32;9.10;99.90
13174;DHT22;6652;48.802;9.190;2023-12-20T10:45:00;8.90;99.90
13174;DHT22;6652;48.802;9.190;2023-12-20T10:47:28;8.60;99.90
13174;DHT22;6652;48.802;9.190;2023-12-20T10:49:59;8.50;99.90
13174;DHT22;6652;48.802;9.190;2023-12-20T10:52:28;8.30;99.90
13174;DHT22;6652;48.802;9.190;2023-12-20T10:54:56;8.20;99.90
13174;DHT22;6652;48.802;9.190;2023-12-20T10:57:26;8.00;99.90
13174;DHT22;6652;48.802;9.190;2023-12-20T10:59:54;7.90;99.90
13174;DHT22;6652;48.802;9.190;2023-12-20T11:02:22;7.80;99.90
13174;DHT22;6652;48.802;9.190;2023-12-20T11:04:55;7.60;99.90
13174;DHT22;6652;48.802;9.190;2023-12-20T11:07:28;7.50;99.90
13174;DHT22;6652;48.802;9.190;2023-12-20T11:09:59;7.50;99.90
13174;DHT22;6652;48.802;9.190;2023-12-20T11:12:37;7.50;99.90
13174;DHT22;6652;48.802;9.190;2023-12-20T11:15:07;7.60;99.90
13174;DHT22;6652;48.802;9.190;2023-12-20T11:17:34;7.70;99.90
13174;DHT22;6652;48.802;9.190;2023-12-20T11:20:05;7.80;99.90
13174;DHT22;6652;48.802;9.190;2023-12-20T11:22:33;7.80;99.90
13174;DHT22;6652;48.802;9.190;2023-12-20T11:25:04;7.80;99.90
13174;DHT22;6652;48.802;9.190;2023-12-20T11:27:33;7.80;99.90
13174;DHT22;6652;48.802;9.190;2023-12-20T11:30:02;7.80;99.90
13174;DHT22;6652;48.802;9.190;2023-12-20T11:32:31;7.80;99.90
13174;DHT22;6652;48.802;9.190;2023-12-20T11:35:01;7.70;99.90
13174;DHT22;6652;48.802;9.190;2023-12-20T11:37:42;7.60;99.90
13174;DHT22;6652;48.802;9.190;2023-12-20T11:40:12;7.60;99.90
13174;DHT22;6652;48.802;9.190;2023-12-20T11:42:42;7.50;99.90
13174;DHT22;6652;48.802;9.190;2023-12-20T11:45:10;7.50;99.90
13174;DHT22;6652;48.802;9.190;2023-12-20T11:47:38;7.60;99.90
13174;DHT22;6652;48.802;9.190;2023-12-20T11:50:06;7.60;99.90
13174;DHT22;6652;48.802;9.190;2023-12-20T11:52:33;7.70;99.90
13174;DHT22;6652;48.802;9.190;2023-12-20T11:54:59;7.70;99.90
13174;DHT22;6652;48.802;9.190;2023-12-20T11:57:26;7.70;99.90
13174;DHT22;6652;48.802;9.190;2023-12-20T11:59:54;7.60;99.90
13174;DHT22;6652;48.802;9.190;2023-12-20T12:02:21;7.50;99.90
13174;DHT22;6652;48.802;9.190;2023-12-20T12:04:49;7.50;99.90
13174;DHT22;6652;48.802;9.190;2023-12-20T12:07:16;7.50;99.90
13174;DHT22;6652;48.802;9.190;2023-12-20T12:09:44;7.50;99.90
13174;DHT22;6652;48.802;9.190;2023-12-20T12:12:12;7.50;99.90
13174;DHT22;6652;48.802;9.190;2023-12-20T12:14:39;7.60;99.90
13174;DHT22;6652;48.802;9.190;2023-12-20T12:17:12;7.70;99.90
13174;DHT22;6652;48.802;9.190;2023-12-20T12:19:39;7.70;99.90
13174;DHT22;6652;48.802;9.190;2023-12-20T12:22:07;7.80;99.90
13174;DHT22;6652;48.802;9.190;2023-12-20T12:24:35;7.80;99.90
13174;DHT22;6652;48.802;9.190;2023-12-20T12:27:03;8.00;99.90
13174;DHT22;6652;48.802;9.190;2023-12-20T12:29:32;8.10;99.90
13174;DHT22;6652;48.802;9.190;2023-12-20T12:31:59;8.20;99.90
13174;DHT22;6652;48.802;9.190;2023-12-20T12:34:28;8.20;99.90
13174;DHT22;6652;48.802;9.190;2023-12-20T12:36:55;8.20;99.90
13174;DHT22;6652;48.802;9.190;2023-12-20T12:39:23;8.20;99.90
13174;DHT22;6652;48.802;9.190;2023-12-20T12:41:51;8.10;99.90
13174;DHT22;6652;48.802;9.190;2023-12-20T12:44:18;7.90;99.90
13174;DHT22;6652;48.802;9.190;2023-12-20T12:46:46;7.80;99.90
13174;DHT22;6652;48.802;9.190;2023-12-20T12:49:15;7.80;99.90
13174;DHT22;6652;48.802;9.190;2023-12-20T12:51:43;7.80;99.90
13174;DHT22;6652;48.802;9.190;2023-12-20T12:54:10;7.80;99.90
13174;DHT22;6652;48.802;9.190;2023-12-20T12:56:38;7.90;99.90
13174;DHT22;6652;48.802;9.190;2023-12-20T12:59:06;7.90;99.90
13174;DHT22;6652;48.802;9.190;2023-12-20T13:01:32;7.90;99.90
13174;DHT22;6652;48.802;9.190;2023-12-20T13:03:59;7.80;99.90
13174;DHT22;6652;48.802;9.190;2023-12-20T13:06:27;7.80;99.90
13174;DHT22;6652;48.802;9.190;2023-12-20T13:08:55;8.00;99.90
13174;DHT22;6652;48.802;9.190;2023-12-20T13:11:22;7.90;99.90
13174;DHT22;6652;48.802;9.190;2023-12-20T13:13:48;8.00;99.90
13174;DHT22;6652;48.802;9.190;2023-12-20T13:16:15;7.90;99.90
13174;DHT22;6652;48.802;9.190;2023-12-20T13:18:42;7.90;99.90
13174;DHT22;6652;48.802;9.190;2023-12-20T13:21:09;7.80;99.90
13174;DHT22;6652;48.802;9.190;2023-12-20T13:23:35;7.80;99.90
13174;DHT22;6652;48.802;9.190;2023-12-20T13:26:04;7.80;99.90
13174;DHT22;6652;48.802;9.190;2023-12-20T13:28:31;7.80;99.90
13174;DHT22;6652;48.802;9.190;2023-12-20T13:30:58;7.90;99.90
13174;DHT22;6652;48.802;9.190;2023-12-20T13:33:25;7.90;99.90
13174;DHT22;6652;48.802;9.190;2023-12-20T13:35:52;8.00;99.90
13174;DHT22;6652;48.802;9.190;2023-12-20T13:38:19;8.00;99.90
13174;DHT22;6652;48.802;9.190;2023-12-20T13:40:45;8.10;99.90
13174;DHT22;6652;48.802;9.190;2023-12-20T13:43:14;8.10;99.90
13174;DHT22;6652;48.802;9.190;2023-12-20T13:45:46;8.10;99.90
13174;DHT22;6652;48.802;9.190;2023-12-20T13:48:13;8.00;99.90
13174;DHT22;6652;48.802;9.190;2023-12-20T13:50:40;8.00;99.90
13174;DHT22;6652;48.802;9.190;2023-12-20T13:53:07;8.00;99.90
13174;DHT22;6652;48.802;9.190;2023-12-20T13:55:34;7.90;99.90
13174;DHT22;6652;48.802;9.190;2023-12-20T13:58:01;7.80;99.90
13174;DHT22;6652;48.802;9.190;2023-12-20T14:00:29;7.90;99.90
13174;DHT22;6652;48.802;9.190;2023-12-20T14:02:56;7.60;99.90
13174;DHT22;6652;48.802;9.190;2023-12-20T14:05:23;7.60;99.90
13174;DHT22;6652;48.802;9.190;2023-12-20T14:07:51;7.80;99.90
13174;DHT22;6652;48.802;9.190;2023-12-20T14:10:17;7.50;99.90
13174;DHT22;6652;48.802;9.190;2023-12-20T14:12:44;7.40;99.90
13174;DHT22;6652;48.802;9.190;2023-12-20T14:15:11;8.20;99.90
13174;DHT22;6652;48.802;9.190;2023-12-20T14:17:40;7.40;99.90
13174;DHT22;6652;48.802;9.190;2023-12-20T14:20:08;7.40;99.90
13174;DHT22;6652;48.802;9.190;2023-12-20T14:22:37;7.40;99.90
13174;DHT22;6652;48.802;9.190;2023-12-20T14:25:10;7.40;99.90
13174;DHT22;6652;48.802;9.190;2023-12-20T14:27:37;7.30;99.90
13174;DHT22;6652;48.802;9.190;2023-12-20T14:30:05;7.30;99.90
13174;DHT22;6652;48.802;9.190;2023-12-20T14:32:34;7.20;99.90
13174;DHT22;6652;48.802;9.190;2023-12-20T14:35:04;7.20;99.90
13174;DHT22;6652;48.802;9.190;2023-12-20T14:37:31;7.30;99.90
13174;DHT22;6652;48.802;9.190;2023-12-20T14:39:58;7.20;99.90
13174;DHT22;6652;48.802;9.190;2023-12-20T14:42:25;7.20;99.90
13174;DHT22;6652;48.802;9.190;2023-12-20T14:44:51;7.40;99.90
13174;DHT22;6652;48.802;9.190;2023-12-20T14:47:20;7.10;99.90
13174;DHT22;6652;48.802;9.190;2023-12-20T14:49:46;7.10;99.90
13174;DHT22;6652;48.802;9.190;2023-12-20T14:52:17;7.00;99.90
13174;DHT22;6652;48.802;9.190;2023-12-20T14:54:44;7.00;99.90
13174;DHT22;6652;48.802;9.190;2023-12-20T14:57:11;6.90;99.90
13174;DHT22;6652;48.802;9.190;2023-12-20T14:59:37;6.90;99.90
13174;DHT22;6652;48.802;9.190;2023-12-20T15:02:04;6.90;99.90
13174;DHT22;6652;48.802;9.190;2023-12-20T15:04:31;6.90;99.90
13174;DHT22;6652;48.802;9.190;2023-12-20T15:06:58;6.90;99.90
13174;DHT22;6652;48.802;9.190;2023-12-20T15:09:27;6.90;99.90
13174;DHT22;6652;48.802;9.190;2023-12-20T15:11:55;6.90;99.90
13174;DHT22;6652;48.802;9.190;2023-12-20T15:14:22;6.90;99.90
13174;DHT22;6652;48.802;9.190;2023-12-20T15:16:49;6.90;99.90
13174;DHT22;6652;48.802;9.190;2023-12-20T15:19:16;6.90;99.90
13174;DHT22;6652;48.802;9.190;2023-12-20T15:21:43;6.80;99.90
13174;DHT22;6652;48.802;9.190;2023-12-20T15:24:09;6.90;99.90
13174;DHT22;6652;48.802;9.190;2023-12-20T15:26:42;6.80;99.90
13174;DHT22;6652;48.802;9.190;2023-12-20T15:29:09;6.80;99.90
13174;DHT22;6652;48.802;9.190;2023-12-20T15:31:42;6.80;99.90
13174;DHT22;6652;48.802;9.190;2023-12-20T15:34:08;6.70;99.90
13174;DHT22;6652;48.802;9.190;2023-12-20T15:36:36;6.70;99.90
13174;DHT22;6652;48.802;9.190;2023-12-20T15:39:03;6.70;99.90
13174;DHT22;6652;48.802;9.190;2023-12-20T15:41:29;6.80;99.90
13174;DHT22;6652;48.802;9.190;2023-12-20T15:43:58;6.80;99.90
13174;DHT22;6652;48.802;9.190;2023-12-20T15:46:24;6.80;99.90
13174;DHT22;6652;48.802;9.190;2023-12-20T15:48:51;7.70;99.90
13174;DHT22;6652;48.802;9.190;2023-12-20T15:51:20;6.70;99.90
13174;DHT22;6652;48.802;9.190;2023-12-20T15:53:47;6.60;99.90
13174;DHT22;6652;48.802;9.190;2023-12-20T15:56:16;6.60;99.90
13174;DHT22;6652;48.802;9.190;2023-12-20T15:58:43;6.60;99.90
13174;DHT22;6652;48.802;9.190;2023-12-20T16:01:11;6.50;99.90